sensor_id;sensor_type;location;lat;lon;timestamp;P1;durP1;ratioP1;P2;durP2;ratioP2
37777;SDS011;23615;51.506;7.678;2023-08-30T00:01:10;3.97;;;3.60;;
37777;SDS011;23615;51.506;7.678;2023-08-30T00:03:38;3.75;;;3.30;;
37777;SDS011;23615;51.506;7.678;2023-08-30T00:06:04;3.50;;;3.20;;
37777;SDS011;23615;51.506;7.678;2023-08-30T00:08:31;3.05;;;2.58;;
37777;SDS011;23615;51.506;7.678;2023-08-30T00:10:57;3.95;;;3.40;;
37777;SDS011;23615;51.506;7.678;2023-08-30T00:13:23;4.35;;;3.95;;
37777;SDS011;23615;51.506;7.678;2023-08-30T00:15:50;3.93;;;3.60;;
37777;SDS011;23615;51.506;7.678;2023-08-30T00:18:15;4.03;;;3.73;;
37777;SDS011;23615;51.506;7.678;2023-08-30T00:20:42;4.18;;;3.38;;
37777;SDS011;23615;51.506;7.678;2023-08-30T00:23:07;4.50;;;4.10;;
37777;SDS011;23615;51.506;7.678;2023-08-30T00:25:33;3.87;;;3.47;;
37777;SDS011;23615;51.506;7.678;2023-08-30T00:27:58;3.20;;;2.93;;
37777;SDS011;23615;51.506;7.678;2023-08-30T00:30:23;3.50;;;3.20;;
37777;SDS011;23615;51.506;7.678;2023-08-30T00:32:49;4.50;;;4.10;;
37777;SDS011;23615;51.506;7.678;2023-08-30T00:35:14;5.30;;;4.80;;
37777;SDS011;23615;51.506;7.678;2023-08-30T00:37:39;4.13;;;3.72;;
37777;SDS011;23615;51.506;7.678;2023-08-30T00:40:05;4.90;;;4.40;;
37777;SDS011;23615;51.506;7.678;2023-08-30T00:42:31;3.58;;;3.30;;
37777;SDS011;23615;51.506;7.678;2023-08-30T00:44:56;4.10;;;3.70;;
37777;SDS011;23615;51.506;7.678;2023-08-30T00:47:22;4.23;;;3.83;;
37777;SDS011;23615;51.506;7.678;2023-08-30T00:49:47;3.95;;;3.53;;
37777;SDS011;23615;51.506;7.678;2023-08-30T00:52:13;5.07;;;3.40;;
37777;SDS011;23615;51.506;7.678;2023-08-30T00:54:38;3.58;;;3.28;;
37777;SDS011;23615;51.506;7.678;2023-08-30T00:57:04;3.67;;;3.37;;
37777;SDS011;23615;51.506;7.678;2023-08-30T00:59:30;3.92;;;3.60;;
37777;SDS011;23615;51.506;7.678;2023-08-30T01:01:57;4.43;;;4.03;;
37777;SDS011;23615;51.506;7.678;2023-08-30T01:04:24;3.90;;;3.60;;
37777;SDS011;23615;51.506;7.678;2023-08-30T01:06:50;4.10;;;3.70;;
37777;SDS011;23615;51.506;7.678;2023-08-30T01:09:15;3.20;;;2.92;;
37777;SDS011;23615;51.506;7.678;2023-08-30T01:14:38;3.50;;;3.20;;
37777;SDS011;23615;51.506;7.678;2023-08-30T01:17:23;3.58;;;3.28;;
37777;SDS011;23615;51.506;7.678;2023-08-30T01:20:00;3.43;;;3.10;;
37777;SDS011;23615;51.506;7.678;2023-08-30T01:22:38;3.30;;;3.00;;
37777;SDS011;23615;51.506;7.678;2023-08-30T01:27:42;3.75;;;3.38;;
37777;SDS011;23615;51.506;7.678;2023-08-30T01:30:10;4.72;;;4.10;;
37777;SDS011;23615;51.506;7.678;2023-08-30T01:32:37;3.78;;;3.40;;
37777;SDS011;23615;51.506;7.678;2023-08-30T01:35:04;3.75;;;3.45;;
37777;SDS011;23615;51.506;7.678;2023-08-30T01:37:31;4.00;;;3.63;;
37777;SDS011;23615;51.506;7.678;2023-08-30T01:39:58;3.63;;;3.03;;
37777;SDS011;23615;51.506;7.678;2023-08-30T01:42:24;3.55;;;3.25;;
37777;SDS011;23615;51.506;7.678;2023-08-30T01:44:51;3.80;;;3.50;;
37777;SDS011;23615;51.506;7.678;2023-08-30T01:47:19;3.25;;;2.95;;
37777;SDS011;23615;51.506;7.678;2023-08-30T01:49:46;3.15;;;2.95;;
37777;SDS011;23615;51.506;7.678;2023-08-30T01:52:12;3.38;;;3.08;;
37777;SDS011;23615;51.506;7.678;2023-08-30T01:54:38;3.33;;;3.08;;
37777;SDS011;23615;51.506;7.678;2023-08-30T01:57:05;3.30;;;3.00;;
37777;SDS011;23615;51.506;7.678;2023-08-30T01:59:31;2.78;;;2.40;;
37777;SDS011;23615;51.506;7.678;2023-08-30T02:01:56;3.23;;;2.93;;
37777;SDS011;23615;51.506;7.678;2023-08-30T02:04:22;2.58;;;2.38;;
37777;SDS011;23615;51.506;7.678;2023-08-30T02:06:54;3.30;;;3.00;;
37777;SDS011;23615;51.506;7.678;2023-08-30T02:09:29;3.50;;;2.83;;
37777;SDS011;23615;51.506;7.678;2023-08-30T02:12:04;2.92;;;2.63;;
37777;SDS011;23615;51.506;7.678;2023-08-30T02:14:35;2.80;;;2.60;;
37777;SDS011;23615;51.506;7.678;2023-08-30T02:17:03;3.10;;;2.90;;
37777;SDS011;23615;51.506;7.678;2023-08-30T02:19:29;3.50;;;3.20;;
37777;SDS011;23615;51.506;7.678;2023-08-30T02:21:55;3.40;;;3.10;;
37777;SDS011;23615;51.506;7.678;2023-08-30T02:24:20;3.23;;;2.93;;
37777;SDS011;23615;51.506;7.678;2023-08-30T02:26:45;3.00;;;2.70;;
37777;SDS011;23615;51.506;7.678;2023-08-30T02:29:11;3.13;;;2.87;;
37777;SDS011;23615;51.506;7.678;2023-08-30T02:31:38;3.22;;;3.03;;
37777;SDS011;23615;51.506;7.678;2023-08-30T02:34:03;3.27;;;3.00;;
37777;SDS011;23615;51.506;7.678;2023-08-30T02:36:28;3.53;;;3.23;;
37777;SDS011;23615;51.506;7.678;2023-08-30T02:38:54;3.37;;;3.07;;
37777;SDS011;23615;51.506;7.678;2023-08-30T02:41:19;3.60;;;3.30;;
37777;SDS011;23615;51.506;7.678;2023-08-30T02:43:44;3.97;;;3.67;;
37777;SDS011;23615;51.506;7.678;2023-08-30T02:46:09;4.15;;;3.75;;
37777;SDS011;23615;51.506;7.678;2023-08-30T02:48:35;3.87;;;3.47;;
37777;SDS011;23615;51.506;7.678;2023-08-30T02:51:00;3.37;;;3.07;;
37777;SDS011;23615;51.506;7.678;2023-08-30T02:53:25;4.43;;;3.80;;
37777;SDS011;23615;51.506;7.678;2023-08-30T02:55:51;4.10;;;3.80;;
37777;SDS011;23615;51.506;7.678;2023-08-30T02:58:16;3.90;;;3.60;;
37777;SDS011;23615;51.506;7.678;2023-08-30T03:00:41;4.03;;;3.73;;
37777;SDS011;23615;51.506;7.678;2023-08-30T03:03:07;4.27;;;3.90;;
37777;SDS011;23615;51.506;7.678;2023-08-30T03:05:32;5.03;;;4.63;;
37777;SDS011;23615;51.506;7.678;2023-08-30T03:07:57;4.40;;;4.10;;
37777;SDS011;23615;51.506;7.678;2023-08-30T03:10:23;4.37;;;3.97;;
37777;SDS011;23615;51.506;7.678;2023-08-30T03:12:48;4.17;;;3.87;;
37777;SDS011;23615;51.506;7.678;2023-08-30T03:15:14;4.40;;;4.00;;
37777;SDS011;23615;51.506;7.678;2023-08-30T03:17:39;4.40;;;4.00;;
37777;SDS011;23615;51.506;7.678;2023-08-30T03:20:04;4.63;;;4.23;;
37777;SDS011;23615;51.506;7.678;2023-08-30T03:22:31;5.30;;;4.80;;
37777;SDS011;23615;51.506;7.678;2023-08-30T03:24:57;5.28;;;4.78;;
37777;SDS011;23615;51.506;7.678;2023-08-30T03:27:22;5.00;;;4.60;;
37777;SDS011;23615;51.506;7.678;2023-08-30T03:29:48;5.80;;;5.13;;
37777;SDS011;23615;51.506;7.678;2023-08-30T03:32:16;6.37;;;5.87;;
37777;SDS011;23615;51.506;7.678;2023-08-30T03:34:44;6.47;;;5.95;;
37777;SDS011;23615;51.506;7.678;2023-08-30T03:37:09;6.18;;;5.68;;
37777;SDS011;23615;51.506;7.678;2023-08-30T03:39:38;5.67;;;5.10;;
37777;SDS011;23615;51.506;7.678;2023-08-30T03:42:03;6.30;;;5.80;;
37777;SDS011;23615;51.506;7.678;2023-08-30T03:44:29;7.30;;;6.60;;
37777;SDS011;23615;51.506;7.678;2023-08-30T03:46:54;6.20;;;5.70;;
37777;SDS011;23615;51.506;7.678;2023-08-30T03:49:21;7.10;;;6.40;;
37777;SDS011;23615;51.506;7.678;2023-08-30T03:51:49;6.28;;;5.68;;
37777;SDS011;23615;51.506;7.678;2023-08-30T03:54:14;7.60;;;6.87;;
37777;SDS011;23615;51.506;7.678;2023-08-30T03:56:44;10.57;;;9.43;;
37777;SDS011;23615;51.506;7.678;2023-08-30T03:59:11;8.50;;;7.70;;
37777;SDS011;23615;51.506;7.678;2023-08-30T04:01:36;11.27;;;10.10;;
37777;SDS011;23615;51.506;7.678;2023-08-30T04:04:02;10.30;;;9.20;;
37777;SDS011;23615;51.506;7.678;2023-08-30T04:06:27;9.50;;;8.60;;
37777;SDS011;23615;51.506;7.678;2023-08-30T04:08:52;9.20;;;8.30;;
37777;SDS011;23615;51.506;7.678;2023-08-30T04:11:18;9.43;;;8.23;;
37777;SDS011;23615;51.506;7.678;2023-08-30T04:13:43;8.20;;;7.40;;
37777;SDS011;23615;51.506;7.678;2023-08-30T04:16:08;7.87;;;7.03;;
37777;SDS011;23615;51.506;7.678;2023-08-30T04:18:33;7.10;;;6.40;;
37777;SDS011;23615;51.506;7.678;2023-08-30T04:20:59;6.70;;;6.10;;
37777;SDS011;23615;51.506;7.678;2023-08-30T04:23:26;6.85;;;6.25;;
37777;SDS011;23615;51.506;7.678;2023-08-30T04:25:52;6.17;;;5.57;;
37777;SDS011;23615;51.506;7.678;2023-08-30T04:28:17;6.63;;;6.03;;
37777;SDS011;23615;51.506;7.678;2023-08-30T04:30:42;6.53;;;5.90;;
37777;SDS011;23615;51.506;7.678;2023-08-30T04:33:08;6.37;;;5.77;;
37777;SDS011;23615;51.506;7.678;2023-08-30T04:35:33;6.37;;;5.77;;
37777;SDS011;23615;51.506;7.678;2023-08-30T04:37:59;6.45;;;5.88;;
37777;SDS011;23615;51.506;7.678;2023-08-30T04:40:25;6.27;;;5.67;;
37777;SDS011;23615;51.506;7.678;2023-08-30T04:42:50;5.83;;;5.23;;
37777;SDS011;23615;51.506;7.678;2023-08-30T04:45:15;6.53;;;5.90;;
37777;SDS011;23615;51.506;7.678;2023-08-30T04:47:41;11.83;;;9.43;;
37777;SDS011;23615;51.506;7.678;2023-08-30T04:50:08;9.13;;;8.15;;
37777;SDS011;23615;51.506;7.678;2023-08-30T04:52:34;9.90;;;8.00;;
37777;SDS011;23615;51.506;7.678;2023-08-30T04:54:59;9.25;;;8.25;;
37777;SDS011;23615;51.506;7.678;2023-08-30T04:57:24;8.03;;;7.20;;
37777;SDS011;23615;51.506;7.678;2023-08-30T04:59:50;8.50;;;7.60;;
37777;SDS011;23615;51.506;7.678;2023-08-30T05:02:15;10.17;;;8.03;;
37777;SDS011;23615;51.506;7.678;2023-08-30T05:04:41;8.93;;;8.10;;
37777;SDS011;23615;51.506;7.678;2023-08-30T05:07:06;9.83;;;8.83;;
37777;SDS011;23615;51.506;7.678;2023-08-30T05:09:31;8.30;;;7.50;;
37777;SDS011;23615;51.506;7.678;2023-08-30T05:11:58;6.95;;;6.25;;
37777;SDS011;23615;51.506;7.678;2023-08-30T05:14:23;7.00;;;6.30;;
37777;SDS011;23615;51.506;7.678;2023-08-30T05:16:49;6.37;;;5.77;;
37777;SDS011;23615;51.506;7.678;2023-08-30T05:19:15;6.35;;;5.75;;
37777;SDS011;23615;51.506;7.678;2023-08-30T05:21:42;5.95;;;5.45;;
37777;SDS011;23615;51.506;7.678;2023-08-30T05:24:07;6.30;;;5.70;;
37777;SDS011;23615;51.506;7.678;2023-08-30T05:26:33;5.57;;;4.90;;
37777;SDS011;23615;51.506;7.678;2023-08-30T05:28:58;6.47;;;5.87;;
37777;SDS011;23615;51.506;7.678;2023-08-30T05:31:23;5.97;;;5.47;;
37777;SDS011;23615;51.506;7.678;2023-08-30T05:33:49;5.63;;;5.03;;
37777;SDS011;23615;51.506;7.678;2023-08-30T05:36:14;6.90;;;5.97;;
37777;SDS011;23615;51.506;7.678;2023-08-30T05:38:39;5.87;;;5.33;;
37777;SDS011;23615;51.506;7.678;2023-08-30T05:41:05;5.70;;;5.18;;
37777;SDS011;23615;51.506;7.678;2023-08-30T05:43:31;5.90;;;5.30;;
37777;SDS011;23615;51.506;7.678;2023-08-30T05:45:56;6.07;;;5.47;;
37777;SDS011;23615;51.506;7.678;2023-08-30T05:48:26;7.00;;;6.30;;
37777;SDS011;23615;51.506;7.678;2023-08-30T05:50:52;5.83;;;5.30;;
37777;SDS011;23615;51.506;7.678;2023-08-30T05:53:17;6.93;;;6.28;;
37777;SDS011;23615;51.506;7.678;2023-08-30T05:55:42;6.70;;;6.10;;
37777;SDS011;23615;51.506;7.678;2023-08-30T05:58:08;6.97;;;6.27;;
37777;SDS011;23615;51.506;7.678;2023-08-30T06:00:33;6.53;;;5.93;;
37777;SDS011;23615;51.506;7.678;2023-08-30T06:02:58;7.40;;;6.70;;
37777;SDS011;23615;51.506;7.678;2023-08-30T06:05:23;6.80;;;6.10;;
37777;SDS011;23615;51.506;7.678;2023-08-30T06:07:49;8.13;;;7.18;;
37777;SDS011;23615;51.506;7.678;2023-08-30T06:10:14;9.30;;;7.10;;
37777;SDS011;23615;51.506;7.678;2023-08-30T06:12:40;7.43;;;6.50;;
37777;SDS011;23615;51.506;7.678;2023-08-30T06:15:05;7.67;;;6.87;;
37777;SDS011;23615;51.506;7.678;2023-08-30T06:17:31;7.40;;;6.55;;
37777;SDS011;23615;51.506;7.678;2023-08-30T06:19:56;8.73;;;7.47;;
37777;SDS011;23615;51.506;7.678;2023-08-30T06:22:22;8.17;;;6.90;;
37777;SDS011;23615;51.506;7.678;2023-08-30T06:24:47;9.90;;;8.83;;
37777;SDS011;23615;51.506;7.678;2023-08-30T06:27:12;9.77;;;8.67;;
37777;SDS011;23615;51.506;7.678;2023-08-30T06:29:37;10.43;;;8.13;;
37777;SDS011;23615;51.506;7.678;2023-08-30T06:32:03;9.37;;;8.13;;
37777;SDS011;23615;51.506;7.678;2023-08-30T06:34:29;9.80;;;8.80;;
37777;SDS011;23615;51.506;7.678;2023-08-30T06:36:55;10.70;;;8.57;;
37777;SDS011;23615;51.506;7.678;2023-08-30T06:39:20;10.97;;;8.73;;
37777;SDS011;23615;51.506;7.678;2023-08-30T06:41:45;9.80;;;8.80;;
37777;SDS011;23615;51.506;7.678;2023-08-30T06:44:11;9.43;;;8.43;;
37777;SDS011;23615;51.506;7.678;2023-08-30T06:46:36;7.67;;;6.87;;
37777;SDS011;23615;51.506;7.678;2023-08-30T06:49:02;10.57;;;9.47;;
37777;SDS011;23615;51.506;7.678;2023-08-30T06:51:28;11.80;;;10.38;;
37777;SDS011;23615;51.506;7.678;2023-08-30T06:53:53;10.77;;;9.67;;
37777;SDS011;23615;51.506;7.678;2023-08-30T06:56:20;10.50;;;9.37;;
37777;SDS011;23615;51.506;7.678;2023-08-30T06:58:45;12.37;;;11.07;;
37777;SDS011;23615;51.506;7.678;2023-08-30T07:01:10;14.37;;;12.20;;
37777;SDS011;23615;51.506;7.678;2023-08-30T07:03:36;12.37;;;11.07;;
37777;SDS011;23615;51.506;7.678;2023-08-30T07:06:01;12.52;;;11.18;;
37777;SDS011;23615;51.506;7.678;2023-08-30T07:08:27;14.10;;;11.10;;
37777;SDS011;23615;51.506;7.678;2023-08-30T07:10:52;14.63;;;12.37;;
37777;SDS011;23615;51.506;7.678;2023-08-30T07:13:17;15.47;;;13.30;;
37777;SDS011;23615;51.506;7.678;2023-08-30T07:15:43;19.60;;;16.40;;
37777;SDS011;23615;51.506;7.678;2023-08-30T07:18:08;21.90;;;17.87;;
37777;SDS011;23615;51.506;7.678;2023-08-30T07:20:34;16.35;;;14.52;;
37777;SDS011;23615;51.506;7.678;2023-08-30T07:23:01;20.02;;;17.02;;
37777;SDS011;23615;51.506;7.678;2023-08-30T07:25:27;18.60;;;15.60;;
37777;SDS011;23615;51.506;7.678;2023-08-30T07:27:52;16.98;;;14.98;;
37777;SDS011;23615;51.506;7.678;2023-08-30T07:30:17;20.80;;;17.77;;
37777;SDS011;23615;51.506;7.678;2023-08-30T07:32:43;18.93;;;15.93;;
37777;SDS011;23615;51.506;7.678;2023-08-30T07:35:08;22.07;;;17.87;;
37777;SDS011;23615;51.506;7.678;2023-08-30T07:37:34;18.90;;;16.15;;
37777;SDS011;23615;51.506;7.678;2023-08-30T07:39:59;23.08;;;19.17;;
37777;SDS011;23615;51.506;7.678;2023-08-30T07:42:25;21.03;;;18.23;;
37777;SDS011;23615;51.506;7.678;2023-08-30T07:44:50;20.97;;;17.87;;
37777;SDS011;23615;51.506;7.678;2023-08-30T07:47:15;19.13;;;16.97;;
37777;SDS011;23615;51.506;7.678;2023-08-30T07:49:40;22.13;;;19.73;;
37777;SDS011;23615;51.506;7.678;2023-08-30T07:52:06;20.02;;;16.63;;
37777;SDS011;23615;51.506;7.678;2023-08-30T07:54:35;19.38;;;15.55;;
37777;SDS011;23615;51.506;7.678;2023-08-30T07:57:01;18.10;;;15.27;;
37777;SDS011;23615;51.506;7.678;2023-08-30T07:59:27;17.98;;;15.57;;
37777;SDS011;23615;51.506;7.678;2023-08-30T08:01:53;21.17;;;18.17;;
37777;SDS011;23615;51.506;7.678;2023-08-30T08:04:18;16.27;;;14.50;;
37777;SDS011;23615;51.506;7.678;2023-08-30T08:06:43;17.97;;;16.07;;
37777;SDS011;23615;51.506;7.678;2023-08-30T08:09:09;16.60;;;13.97;;
37777;SDS011;23615;51.506;7.678;2023-08-30T08:11:34;20.07;;;16.77;;
37777;SDS011;23615;51.506;7.678;2023-08-30T08:13:59;17.40;;;14.80;;
37777;SDS011;23615;51.506;7.678;2023-08-30T08:16:25;16.90;;;15.07;;
37777;SDS011;23615;51.506;7.678;2023-08-30T08:18:50;14.90;;;12.80;;
37777;SDS011;23615;51.506;7.678;2023-08-30T08:21:17;14.25;;;12.73;;
37777;SDS011;23615;51.506;7.678;2023-08-30T08:23:42;10.47;;;9.43;;
37777;SDS011;23615;51.506;7.678;2023-08-30T08:26:08;11.90;;;10.10;;
37777;SDS011;23615;51.506;7.678;2023-08-30T08:28:33;11.37;;;9.17;;
37777;SDS011;23615;51.506;7.678;2023-08-30T08:30:58;9.27;;;8.23;;
37777;SDS011;23615;51.506;7.678;2023-08-30T08:33:23;9.63;;;7.87;;
37777;SDS011;23615;51.506;7.678;2023-08-30T08:35:49;12.50;;;8.87;;
37777;SDS011;23615;51.506;7.678;2023-08-30T08:38:14;9.43;;;7.78;;
37777;SDS011;23615;51.506;7.678;2023-08-30T08:40:40;10.93;;;8.47;;
37777;SDS011;23615;51.506;7.678;2023-08-30T08:43:05;8.70;;;6.93;;
37777;SDS011;23615;51.506;7.678;2023-08-30T08:45:37;12.37;;;8.83;;
37777;SDS011;23615;51.506;7.678;2023-08-30T08:48:06;9.10;;;7.47;;
37777;SDS011;23615;51.506;7.678;2023-08-30T08:50:32;12.70;;;9.90;;
37777;SDS011;23615;51.506;7.678;2023-08-30T08:52:57;13.15;;;9.93;;
37777;SDS011;23615;51.506;7.678;2023-08-30T08:55:23;9.05;;;7.30;;
37777;SDS011;23615;51.506;7.678;2023-08-30T08:57:51;5.40;;;4.55;;
37777;SDS011;23615;51.506;7.678;2023-08-30T09:00:18;6.03;;;4.03;;
37777;SDS011;23615;51.506;7.678;2023-08-30T09:02:43;3.47;;;2.70;;
37777;SDS011;23615;51.506;7.678;2023-08-30T09:05:09;4.43;;;3.07;;
37777;SDS011;23615;51.506;7.678;2023-08-30T09:07:35;3.38;;;2.70;;
37777;SDS011;23615;51.506;7.678;2023-08-30T09:10:02;4.25;;;2.67;;
37777;SDS011;23615;51.506;7.678;2023-08-30T09:12:31;3.75;;;2.70;;
37777;SDS011;23615;51.506;7.678;2023-08-30T09:14:57;4.68;;;3.25;;
37777;SDS011;23615;51.506;7.678;2023-08-30T09:17:22;3.72;;;3.30;;
37777;SDS011;23615;51.506;7.678;2023-08-30T09:19:48;3.17;;;2.67;;
37777;SDS011;23615;51.506;7.678;2023-08-30T09:22:13;3.77;;;2.90;;
37777;SDS011;23615;51.506;7.678;2023-08-30T09:24:39;5.93;;;3.37;;
37777;SDS011;23615;51.506;7.678;2023-08-30T09:27:05;3.97;;;2.55;;
37777;SDS011;23615;51.506;7.678;2023-08-30T09:29:31;4.07;;;2.83;;
37777;SDS011;23615;51.506;7.678;2023-08-30T09:31:56;3.10;;;2.20;;
37777;SDS011;23615;51.506;7.678;2023-08-30T09:34:25;2.55;;;2.30;;
37777;SDS011;23615;51.506;7.678;2023-08-30T09:36:50;5.13;;;2.42;;
37777;SDS011;23615;51.506;7.678;2023-08-30T09:39:16;2.75;;;2.03;;
37777;SDS011;23615;51.506;7.678;2023-08-30T09:41:42;3.33;;;1.80;;
37777;SDS011;23615;51.506;7.678;2023-08-30T09:44:13;5.07;;;1.75;;
37777;SDS011;23615;51.506;7.678;2023-08-30T09:46:46;3.10;;;1.77;;
37777;SDS011;23615;51.506;7.678;2023-08-30T09:49:14;7.50;;;2.08;;
37777;SDS011;23615;51.506;7.678;2023-08-30T09:51:40;5.40;;;2.22;;
37777;SDS011;23615;51.506;7.678;2023-08-30T09:54:09;2.05;;;1.50;;
37777;SDS011;23615;51.506;7.678;2023-08-30T09:56:39;3.28;;;1.80;;
37777;SDS011;23615;51.506;7.678;2023-08-30T09:59:05;1.90;;;1.35;;
37777;SDS011;23615;51.506;7.678;2023-08-30T10:01:32;2.00;;;1.60;;
37777;SDS011;23615;51.506;7.678;2023-08-30T10:03:57;1.77;;;1.40;;
37777;SDS011;23615;51.506;7.678;2023-08-30T10:06:24;2.67;;;1.80;;
37777;SDS011;23615;51.506;7.678;2023-08-30T10:08:49;2.90;;;1.80;;
37777;SDS011;23615;51.506;7.678;2023-08-30T10:11:17;2.00;;;1.60;;
37777;SDS011;23615;51.506;7.678;2023-08-30T10:13:43;4.07;;;2.22;;
37777;SDS011;23615;51.506;7.678;2023-08-30T10:16:09;1.98;;;1.67;;
37777;SDS011;23615;51.506;7.678;2023-08-30T10:18:40;4.10;;;2.20;;
37777;SDS011;23615;51.506;7.678;2023-08-30T10:21:06;4.10;;;1.90;;
37777;SDS011;23615;51.506;7.678;2023-08-30T10:23:36;2.13;;;1.57;;
37777;SDS011;23615;51.506;7.678;2023-08-30T10:26:03;2.67;;;1.60;;
37777;SDS011;23615;51.506;7.678;2023-08-30T10:28:30;7.25;;;1.88;;
37777;SDS011;23615;51.506;7.678;2023-08-30T10:30:56;2.20;;;1.85;;
37777;SDS011;23615;51.506;7.678;2023-08-30T10:33:21;2.27;;;1.47;;
37777;SDS011;23615;51.506;7.678;2023-08-30T10:35:50;2.63;;;1.70;;
37777;SDS011;23615;51.506;7.678;2023-08-30T10:38:29;2.72;;;1.50;;
37777;SDS011;23615;51.506;7.678;2023-08-30T10:40:54;4.25;;;2.30;;
37777;SDS011;23615;51.506;7.678;2023-08-30T10:43:29;2.33;;;1.90;;
37777;SDS011;23615;51.506;7.678;2023-08-30T10:45:59;2.13;;;1.80;;
37777;SDS011;23615;51.506;7.678;2023-08-30T10:48:34;3.03;;;1.88;;
37777;SDS011;23615;51.506;7.678;2023-08-30T10:51:02;3.88;;;2.92;;
37777;SDS011;23615;51.506;7.678;2023-08-30T10:53:32;4.97;;;3.10;;
37777;SDS011;23615;51.506;7.678;2023-08-30T10:56:07;4.88;;;3.15;;
37777;SDS011;23615;51.506;7.678;2023-08-30T10:58:40;2.50;;;1.45;;
37777;SDS011;23615;51.506;7.678;2023-08-30T11:01:07;2.22;;;1.23;;
37777;SDS011;23615;51.506;7.678;2023-08-30T11:03:36;4.13;;;1.55;;
37777;SDS011;23615;51.506;7.678;2023-08-30T11:06:02;2.07;;;1.50;;
37777;SDS011;23615;51.506;7.678;2023-08-30T11:08:28;1.95;;;1.52;;
37777;SDS011;23615;51.506;7.678;2023-08-30T11:11:06;2.78;;;2.03;;
37777;SDS011;23615;51.506;7.678;2023-08-30T11:13:33;2.72;;;1.83;;
37777;SDS011;23615;51.506;7.678;2023-08-30T11:16:00;2.53;;;2.05;;
37777;SDS011;23615;51.506;7.678;2023-08-30T11:18:29;4.20;;;3.80;;
37777;SDS011;23615;51.506;7.678;2023-08-30T11:21:01;7.03;;;4.07;;
37777;SDS011;23615;51.506;7.678;2023-08-30T11:23:27;5.00;;;4.28;;
37777;SDS011;23615;51.506;7.678;2023-08-30T11:25:52;5.10;;;4.40;;
37777;SDS011;23615;51.506;7.678;2023-08-30T11:28:22;5.30;;;4.80;;
37777;SDS011;23615;51.506;7.678;2023-08-30T11:30:48;5.35;;;4.75;;
37777;SDS011;23615;51.506;7.678;2023-08-30T11:33:16;8.93;;;5.73;;
37777;SDS011;23615;51.506;7.678;2023-08-30T11:35:42;5.28;;;4.78;;
37777;SDS011;23615;51.506;7.678;2023-08-30T11:38:07;5.00;;;4.50;;
37777;SDS011;23615;51.506;7.678;2023-08-30T11:40:40;6.00;;;5.47;;
37777;SDS011;23615;51.506;7.678;2023-08-30T11:43:06;6.63;;;5.68;;
37777;SDS011;23615;51.506;7.678;2023-08-30T11:45:32;6.30;;;5.57;;
37777;SDS011;23615;51.506;7.678;2023-08-30T11:48:01;6.40;;;5.80;;
37777;SDS011;23615;51.506;7.678;2023-08-30T11:50:27;7.18;;;5.82;;
37777;SDS011;23615;51.506;7.678;2023-08-30T11:52:54;6.20;;;5.60;;
37777;SDS011;23615;51.506;7.678;2023-08-30T11:55:20;5.95;;;5.45;;
37777;SDS011;23615;51.506;7.678;2023-08-30T11:57:49;5.63;;;5.13;;
37777;SDS011;23615;51.506;7.678;2023-08-30T12:00:15;5.68;;;5.15;;
37777;SDS011;23615;51.506;7.678;2023-08-30T12:02:44;5.65;;;5.03;;
37777;SDS011;23615;51.506;7.678;2023-08-30T12:05:11;5.38;;;4.65;;
37777;SDS011;23615;51.506;7.678;2023-08-30T12:07:38;5.55;;;3.88;;
37777;SDS011;23615;51.506;7.678;2023-08-30T12:10:08;4.93;;;3.40;;
37777;SDS011;23615;51.506;7.678;2023-08-30T12:12:35;4.85;;;4.35;;
37777;SDS011;23615;51.506;7.678;2023-08-30T12:15:04;4.57;;;4.18;;
37777;SDS011;23615;51.506;7.678;2023-08-30T12:17:34;4.78;;;4.28;;
37777;SDS011;23615;51.506;7.678;2023-08-30T12:20:00;5.00;;;4.50;;
37777;SDS011;23615;51.506;7.678;2023-08-30T12:22:38;5.07;;;4.57;;
37777;SDS011;23615;51.506;7.678;2023-08-30T12:25:04;4.50;;;4.10;;
37777;SDS011;23615;51.506;7.678;2023-08-30T12:27:40;4.70;;;4.28;;
37777;SDS011;23615;51.506;7.678;2023-08-30T12:30:06;5.17;;;4.40;;
37777;SDS011;23615;51.506;7.678;2023-08-30T12:32:32;4.47;;;4.07;;
37777;SDS011;23615;51.506;7.678;2023-08-30T12:34:57;5.10;;;3.87;;
37777;SDS011;23615;51.506;7.678;2023-08-30T12:37:23;4.70;;;4.20;;
37777;SDS011;23615;51.506;7.678;2023-08-30T12:39:49;5.32;;;4.40;;
37777;SDS011;23615;51.506;7.678;2023-08-30T12:42:14;4.40;;;3.42;;
37777;SDS011;23615;51.506;7.678;2023-08-30T12:44:39;4.87;;;3.77;;
37777;SDS011;23615;51.506;7.678;2023-08-30T12:47:05;4.30;;;3.80;;
37777;SDS011;23615;51.506;7.678;2023-08-30T12:49:30;4.63;;;3.87;;
37777;SDS011;23615;51.506;7.678;2023-08-30T12:51:55;5.93;;;4.40;;
37777;SDS011;23615;51.506;7.678;2023-08-30T12:54:21;6.47;;;4.30;;
37777;SDS011;23615;51.506;7.678;2023-08-30T12:56:46;5.40;;;4.40;;
37777;SDS011;23615;51.506;7.678;2023-08-30T12:59:11;4.97;;;3.83;;
37777;SDS011;23615;51.506;7.678;2023-08-30T13:01:37;3.83;;;3.47;;
37777;SDS011;23615;51.506;7.678;2023-08-30T13:04:02;4.70;;;3.13;;
37777;SDS011;23615;51.506;7.678;2023-08-30T13:06:28;3.97;;;3.45;;
37777;SDS011;23615;51.506;7.678;2023-08-30T13:08:53;2.57;;;2.37;;
37777;SDS011;23615;51.506;7.678;2023-08-30T13:11:19;3.37;;;1.77;;
37777;SDS011;23615;51.506;7.678;2023-08-30T13:13:44;3.17;;;1.70;;
37777;SDS011;23615;51.506;7.678;2023-08-30T13:16:09;1.60;;;1.50;;
37777;SDS011;23615;51.506;7.678;2023-08-30T13:18:35;1.33;;;1.23;;
37777;SDS011;23615;51.506;7.678;2023-08-30T13:21:03;1.77;;;1.10;;
37777;SDS011;23615;51.506;7.678;2023-08-30T13:23:29;1.10;;;0.60;;
37777;SDS011;23615;51.506;7.678;2023-08-30T13:25:54;1.20;;;1.07;;
37777;SDS011;23615;51.506;7.678;2023-08-30T13:28:19;1.37;;;0.93;;
37777;SDS011;23615;51.506;7.678;2023-08-30T13:30:45;1.10;;;1.03;;
37777;SDS011;23615;51.506;7.678;2023-08-30T13:33:11;1.75;;;1.65;;
37777;SDS011;23615;51.506;7.678;2023-08-30T13:35:38;1.50;;;1.13;;
37777;SDS011;23615;51.506;7.678;2023-08-30T13:38:06;1.40;;;1.20;;
37777;SDS011;23615;51.506;7.678;2023-08-30T13:40:32;2.23;;;1.50;;
37777;SDS011;23615;51.506;7.678;2023-08-30T13:42:57;1.40;;;1.30;;
37777;SDS011;23615;51.506;7.678;2023-08-30T13:45:22;2.50;;;1.50;;
37777;SDS011;23615;51.506;7.678;2023-08-30T13:47:48;2.03;;;1.58;;
37777;SDS011;23615;51.506;7.678;2023-08-30T13:50:16;2.40;;;1.38;;
37777;SDS011;23615;51.506;7.678;2023-08-30T13:52:42;0.97;;;0.87;;
37777;SDS011;23615;51.506;7.678;2023-08-30T13:55:07;1.37;;;0.90;;
37777;SDS011;23615;51.506;7.678;2023-08-30T13:57:33;0.80;;;0.57;;
37777;SDS011;23615;51.506;7.678;2023-08-30T13:59:58;0.40;;;0.40;;
37777;SDS011;23615;51.506;7.678;2023-08-30T14:02:23;0.68;;;0.60;;
37777;SDS011;23615;51.506;7.678;2023-08-30T14:04:50;0.70;;;0.60;;
37777;SDS011;23615;51.506;7.678;2023-08-30T14:07:15;1.73;;;0.60;;
37777;SDS011;23615;51.506;7.678;2023-08-30T14:09:40;1.37;;;0.60;;
37777;SDS011;23615;51.506;7.678;2023-08-30T14:12:06;0.90;;;0.40;;
37777;SDS011;23615;51.506;7.678;2023-08-30T14:14:31;0.63;;;0.57;;
37777;SDS011;23615;51.506;7.678;2023-08-30T14:16:57;1.23;;;0.60;;
37777;SDS011;23615;51.506;7.678;2023-08-30T14:19:22;1.57;;;0.80;;
37777;SDS011;23615;51.506;7.678;2023-08-30T14:21:47;1.60;;;0.90;;
37777;SDS011;23615;51.506;7.678;2023-08-30T14:24:13;1.50;;;0.70;;
37777;SDS011;23615;51.506;7.678;2023-08-30T14:26:38;1.45;;;0.95;;
37777;SDS011;23615;51.506;7.678;2023-08-30T14:29:03;2.07;;;0.90;;
37777;SDS011;23615;51.506;7.678;2023-08-30T14:31:29;2.40;;;0.50;;
37777;SDS011;23615;51.506;7.678;2023-08-30T14:33:55;0.60;;;0.52;;
37777;SDS011;23615;51.506;7.678;2023-08-30T14:36:23;1.40;;;0.73;;
37777;SDS011;23615;51.506;7.678;2023-08-30T14:38:49;0.90;;;0.50;;
37777;SDS011;23615;51.506;7.678;2023-08-30T14:41:14;0.40;;;0.40;;
37777;SDS011;23615;51.506;7.678;2023-08-30T14:43:41;0.80;;;0.57;;